Time;durP1;ratioP1;P1;durP2;ratioP2;P2;SDS_P1;SDS_P2;PMS_P1;PMS_P2;Temp;Humidity;BMP_temperature;BMP_pressure;BME280_temperature;BME280_humidity;BME280_pressure;Samples;Min_cycle;Max_cycle;Signal;HPM_P1;HPM_P2
2021/08/21 00:01:46;;;;;;;11.60;9.13;;;;;;;17.69;100.00;100605.78;5014131;28;20180;-70
2021/08/21 00:04:15;;;;;;;10.20;9.30;;;;;;;17.71;100.00;100609.00;5013921;28;20184;-70
2021/08/21 00:06:40;;;;;;;9.00;8.10;;;;;;;17.68;100.00;100649.19;5013892;28;20179;-70
2021/08/21 00:09:05;;;;;;;8.53;7.83;;;;;;;17.66;100.00;100637.66;5013898;28;20180;-70
2021/08/21 00:11:32;;;;;;;9.23;8.43;;;;;;;17.69;100.00;100620.41;5013850;28;20221;-70
2021/08/21 00:13:57;;;;;;;7.87;7.17;;;;;;;17.66;100.00;100618.31;5013576;28;20254;-70
2021/08/21 00:16:22;;;;;;;8.70;8.00;;;;;;;17.62;100.00;100606.34;5013794;28;20188;-70
2021/08/21 00:18:48;;;;;;;8.97;8.10;;;;;;;17.63;100.00;100677.03;5013607;28;20181;-70
2021/08/21 00:21:13;;;;;;;9.40;8.50;;;;;;;17.69;100.00;100630.66;5013553;28;20259;-70
2021/08/21 00:23:42;;;;;;;10.20;9.27;;;;;;;17.72;100.00;100627.19;5013485;28;20524;-70
2021/08/21 00:26:08;;;;;;;10.33;9.43;;;;;;;17.79;100.00;100603.31;5013591;28;20172;-70
2021/08/21 00:28:33;;;;;;;9.50;8.53;;;;;;;17.90;100.00;100594.44;5013559;28;20179;-70
2021/08/21 00:30:59;;;;;;;9.30;8.40;;;;;;;17.97;100.00;100591.88;5013536;28;20554;-70
2021/08/21 00:33:24;;;;;;;8.97;8.07;;;;;;;18.01;100.00;100595.53;5013439;28;20179;-70
2021/08/21 00:35:49;;;;;;;9.10;8.30;;;;;;;18.03;100.00;100594.00;5013232;28;20188;-70
2021/08/21 00:38:15;;;;;;;8.80;7.77;;;;;;;18.01;100.00;100590.78;5013312;28;20183;-70
2021/08/21 00:40:40;;;;;;;11.67;9.27;;;;;;;17.91;100.00;100596.06;5013269;28;20208;-70
2021/08/21 00:43:06;;;;;;;8.53;7.83;;;;;;;17.80;100.00;100602.13;5013231;28;20176;-70
2021/08/21 00:45:31;;;;;;;8.10;7.50;;;;;;;17.67;100.00;100597.81;5013045;28;20181;-70
2021/08/21 00:47:57;;;;;;;9.63;8.60;;;;;;;17.63;100.00;100601.63;5013143;28;20183;-70
2021/08/21 00:50:23;;;;;;;8.63;7.83;;;;;;;17.54;100.00;100593.53;5012879;28;20185;-70
2021/08/21 00:52:49;;;;;;;9.30;8.50;;;;;;;17.45;100.00;100598.41;5012982;28;20259;-70
2021/08/21 00:55:14;;;;;;;8.70;7.90;;;;;;;17.35;100.00;100602.47;5012583;28;20688;-70
2021/08/21 00:57:39;;;;;;;10.23;9.30;;;;;;;17.26;100.00;100599.09;5013041;28;20183;-70
2021/08/21 01:00:06;;;;;;;9.33;8.47;;;;;;;17.32;100.00;100591.34;5012871;28;20658;-70
2021/08/21 01:02:32;;;;;;;9.30;8.40;;;;;;;17.30;100.00;100588.94;5011754;28;20615;-70
2021/08/21 01:04:58;;;;;;;9.60;8.80;;;;;;;17.22;100.00;100599.00;5012640;28;20231;-70
2021/08/21 01:07:27;;;;;;;9.73;8.73;;;;;;;17.17;100.00;100607.50;5012686;28;20215;-70
2021/08/21 01:09:53;;;;;;;9.13;8.33;;;;;;;17.15;100.00;100601.53;5012720;28;20199;-70
2021/08/21 01:12:20;;;;;;;9.60;8.80;;;;;;;17.14;100.00;100657.91;5012667;28;20231;-70
2021/08/21 01:14:47;;;;;;;9.50;8.70;;;;;;;17.13;100.00;100653.56;5012224;28;20188;-70
2021/08/21 01:17:13;;;;;;;9.20;8.33;;;;;;;17.11;100.00;100635.72;5012659;28;20598;-70
2021/08/21 01:19:41;;;;;;;9.93;8.93;;;;;;;17.06;100.00;100614.69;5012492;28;20295;-70
2021/08/21 01:22:13;;;;;;;9.23;8.43;;;;;;;16.99;100.00;100617.25;5012535;28;20571;-70
2021/08/21 01:24:39;;;;;;;9.50;8.60;;;;;;;16.91;100.00;100610.72;5012637;28;20223;-70
2021/08/21 01:27:05;;;;;;;7.70;7.00;;;;;;;16.82;100.00;100598.22;5012376;28;20180;-70
2021/08/21 01:29:31;;;;;;;8.70;8.00;;;;;;;16.72;100.00;100590.41;5012653;28;20191;-72
2021/08/21 01:31:56;;;;;;;9.37;8.47;;;;;;;16.65;100.00;100589.03;5012327;28;20180;-73
2021/08/21 01:34:22;;;;;;;9.63;8.63;;;;;;;16.59;100.00;100598.69;5012430;28;20173;-72
2021/08/21 01:36:50;;;;;;;9.50;8.70;;;;;;;16.53;100.00;100591.81;5012443;28;20168;-73
2021/08/21 01:39:17;;;;;;;8.57;7.87;;;;;;;16.50;100.00;100589.75;5012209;28;20228;-73
2021/08/21 01:41:43;;;;;;;8.30;7.60;;;;;;;16.47;100.00;100593.19;5012120;28;20173;-72
2021/08/21 01:44:10;;;;;;;8.57;7.83;;;;;;;16.38;100.00;100592.53;5011978;28;20227;-72
2021/08/21 01:46:36;;;;;;;8.50;7.80;;;;;;;16.39;100.00;100590.59;5011025;28;20498;-72
2021/08/21 01:49:03;;;;;;;8.40;7.70;;;;;;;16.31;100.00;100595.88;5010698;28;20183;-73
2021/08/21 01:51:31;;;;;;;9.30;8.17;;;;;;;16.30;100.00;100596.22;5011938;28;20207;-72
2021/08/21 01:53:58;;;;;;;8.23;7.43;;;;;;;16.20;100.00;100596.66;5012189;28;20177;-72
2021/08/21 01:56:26;;;;;;;8.30;7.50;;;;;;;16.14;100.00;100604.38;5011865;28;20699;-73
2021/08/21 01:58:52;;;;;;;7.97;7.27;;;;;;;16.02;100.00;100605.16;5011785;28;20173;-72
2021/08/21 02:01:17;;;;;;;9.37;8.47;;;;;;;15.94;100.00;100613.56;5011805;28;20530;-72
2021/08/21 02:03:46;;;;;;;9.73;7.67;;;;;;;15.88;100.00;100615.72;5011744;28;20180;-72
2021/08/21 02:06:13;;;;;;;8.20;7.40;;;;;;;15.82;100.00;100606.09;5011239;28;20224;-72
2021/08/21 02:08:38;;;;;;;8.53;7.73;;;;;;;15.74;100.00;100605.03;5011797;28;20179;-73
2021/08/21 02:11:03;;;;;;;8.37;7.60;;;;;;;15.73;100.00;100608.13;5011612;28;20172;-72
2021/08/21 02:13:29;;;;;;;8.63;7.83;;;;;;;15.74;100.00;100615.25;5011419;28;20207;-72
2021/08/21 02:15:54;;;;;;;7.97;7.23;;;;;;;15.73;100.00;100619.16;5011401;28;20193;-72
2021/08/21 02:18:19;;;;;;;8.37;7.57;;;;;;;15.73;100.00;100605.38;5011579;28;20632;-73
2021/08/21 02:20:46;;;;;;;7.27;6.57;;;;;;;15.69;100.00;100613.53;5011315;28;20416;-73
2021/08/21 02:23:12;;;;;;;8.77;8.07;;;;;;;15.69;100.00;100619.03;5011330;28;20180;-73
2021/08/21 02:25:38;;;;;;;8.83;7.70;;;;;;;15.63;100.00;100622.34;5011245;28;20509;-72
2021/08/21 02:28:08;;;;;;;8.03;7.20;;;;;;;15.51;100.00;100619.53;5011385;28;20663;-72
2021/08/21 02:30:36;;;;;;;7.73;6.93;;;;;;;15.49;100.00;100622.63;5011299;28;20170;-70
2021/08/21 02:33:03;;;;;;;8.20;7.33;;;;;;;15.47;100.00;100633.97;5011374;28;20262;-70
2021/08/21 02:35:28;;;;;;;8.07;7.37;;;;;;;15.47;100.00;100633.16;5011166;28;20632;-70
2021/08/21 02:37:53;;;;;;;8.37;7.57;;;;;;;15.47;100.00;100617.44;5011213;28;20264;-70
2021/08/21 02:40:19;;;;;;;9.20;7.67;;;;;;;15.51;100.00;100622.28;5011218;28;20696;-69
2021/08/21 02:42:44;;;;;;;7.63;7.03;;;;;;;15.48;100.00;100623.78;5011231;28;20207;-70
2021/08/21 02:45:10;;;;;;;8.00;7.33;;;;;;;15.46;100.00;100628.81;5011100;28;20259;-70
2021/08/21 02:47:35;;;;;;;6.80;6.17;;;;;;;15.48;100.00;100624.59;5011337;28;20207;-71
2021/08/21 02:50:01;;;;;;;7.47;6.77;;;;;;;15.48;100.00;100621.84;5011382;28;20179;-71
2021/08/21 02:52:26;;;;;;;7.63;6.93;;;;;;;15.50;100.00;100623.44;5011096;28;20202;-71
2021/08/21 02:54:51;;;;;;;7.10;6.50;;;;;;;15.42;100.00;100625.94;5011287;28;20183;-71
2021/08/21 02:57:17;;;;;;;7.03;6.37;;;;;;;15.37;100.00;100617.09;5011080;28;20188;-71
2021/08/21 02:59:42;;;;;;;6.60;6.00;;;;;;;15.25;100.00;100628.84;5010969;28;20269;-71
2021/08/21 03:02:07;;;;;;;6.90;6.33;;;;;;;15.24;100.00;100613.50;5010902;28;20310;-71
2021/08/21 03:04:33;;;;;;;6.73;6.10;;;;;;;15.22;100.00;100617.72;5010862;28;20651;-71
2021/08/21 03:06:58;;;;;;;7.53;6.83;;;;;;;15.24;100.00;100616.25;5009662;28;20180;-70
2021/08/21 03:09:23;;;;;;;7.60;7.00;;;;;;;15.29;100.00;100623.47;5010933;28;20207;-71
2021/08/21 03:11:49;;;;;;;7.87;7.23;;;;;;;15.36;100.00;100632.00;5010938;28;20180;-71
2021/08/21 03:14:14;;;;;;;10.00;8.47;;;;;;;15.41;100.00;100621.56;5010532;28;20184;-71
2021/08/21 03:16:39;;;;;;;7.30;6.70;;;;;;;15.46;100.00;100615.03;5010671;28;20202;-70
2021/08/21 03:19:04;;;;;;;8.50;7.23;;;;;;;15.49;100.00;100617.13;5013939;28;20211;-71
2021/08/21 03:21:30;;;;;;;8.90;8.00;;;;;;;15.56;100.00;100616.56;5014776;28;20187;-72
2021/08/21 03:23:55;;;;;;;8.27;7.23;;;;;;;15.51;100.00;100614.03;5014588;28;20219;-71
2021/08/21 03:26:20;;;;;;;9.07;7.43;;;;;;;15.38;100.00;100610.44;5014799;28;20243;-71
2021/08/21 03:28:46;;;;;;;8.57;7.60;;;;;;;15.36;100.00;100619.03;5014585;28;20184;-72
2021/08/21 03:31:11;;;;;;;9.20;8.20;;;;;;;15.36;100.00;100623.75;5014945;28;20226;-71
2021/08/21 03:33:37;;;;;;;9.07;8.27;;;;;;;15.44;100.00;100617.31;5013260;28;20185;-71
2021/08/21 03:36:02;;;;;;;8.87;7.97;;;;;;;15.50;100.00;100626.19;5014515;28;20180;-71
2021/08/21 03:38:27;;;;;;;9.43;8.57;;;;;;;15.53;100.00;100625.50;5014467;28;20177;-71
2021/08/21 03:40:53;;;;;;;9.23;8.33;;;;;;;15.20;100.00;100618.06;5014458;28;20200;-71
2021/08/21 03:43:18;;;;;;;8.17;7.33;;;;;;;15.31;100.00;100629.44;5010735;28;20729;-71
2021/08/21 03:45:44;;;;;;;10.90;8.17;;;;;;;14.94;100.00;100636.75;5013963;28;20639;-72
2021/08/21 03:48:19;;;;;;;9.30;8.50;;;;;;;14.77;100.00;100633.00;5014201;28;20182;-71
2021/08/21 03:50:45;;;;;;;10.47;9.40;;;;;;;14.61;100.00;100631.97;5014380;28;20216;-71
2021/08/21 03:53:10;;;;;;;17.07;9.20;;;;;;;14.61;100.00;100639.38;5014082;28;20180;-71
2021/08/21 03:55:36;;;;;;;9.57;8.67;;;;;;;14.81;100.00;100638.63;5013905;28;20187;-72
2021/08/21 03:58:01;;;;;;;9.77;8.87;;;;;;;15.01;100.00;100635.03;5014174;28;20261;-71
2021/08/21 04:00:26;;;;;;;9.87;8.93;;;;;;;15.25;100.00;100641.81;5014015;28;20236;-73
2021/08/21 04:02:52;;;;;;;8.30;7.50;;;;;;;15.37;100.00;100652.88;5013912;28;20184;-71
2021/08/21 04:05:17;;;;;;;7.77;7.07;;;;;;;15.47;100.00;100650.50;5013759;28;20591;-71
2021/08/21 04:07:43;;;;;;;8.00;7.20;;;;;;;15.58;100.00;100667.41;5013878;28;20180;-71
2021/08/21 04:10:08;;;;;;;8.23;7.13;;;;;;;15.62;100.00;100659.28;5013907;28;20184;-72
2021/08/21 04:12:35;;;;;;;8.37;7.57;;;;;;;15.66;100.00;100657.47;5010336;28;20271;-73
2021/08/21 04:15:01;;;;;;;8.37;7.67;;;;;;;15.71;100.00;100662.75;5003336;28;20235;-74
2021/08/21 04:17:26;;;;;;;8.07;7.27;;;;;;;15.73;100.00;100655.75;5003174;28;20657;-75
2021/08/21 04:19:51;;;;;;;7.27;6.63;;;;;;;15.71;100.00;100658.06;5005346;28;20208;-72
2021/08/21 04:22:17;;;;;;;8.27;7.57;;;;;;;15.69;100.00;100652.09;5013813;28;20647;-71
2021/08/21 04:24:42;;;;;;;7.60;6.90;;;;;;;15.67;100.00;100656.34;5013549;28;20176;-71
2021/08/21 04:27:07;;;;;;;8.43;6.93;;;;;;;15.58;100.00;100661.88;5013554;28;20824;-72
2021/08/21 04:29:33;;;;;;;6.93;6.33;;;;;;;15.53;100.00;100666.81;5012857;28;20188;-71
2021/08/21 04:31:58;;;;;;;7.63;7.03;;;;;;;15.54;100.00;100663.72;5012061;28;20651;-72
2021/08/21 04:34:23;;;;;;;6.77;6.17;;;;;;;15.55;100.00;100670.03;5012028;28;20192;-71
2021/08/21 04:36:49;;;;;;;8.10;7.40;;;;;;;15.61;100.00;100669.50;5013362;28;20238;-72
2021/08/21 04:39:14;;;;;;;7.53;6.93;;;;;;;15.64;100.00;100668.03;5013400;28;20762;-71
2021/08/21 04:41:39;;;;;;;7.00;6.40;;;;;;;15.65;100.00;100714.53;5013252;28;20283;-71
2021/08/21 04:44:05;;;;;;;7.70;7.03;;;;;;;15.58;100.00;100703.19;5012744;28;20177;-71
2021/08/21 04:46:33;;;;;;;7.50;6.90;;;;;;;15.63;100.00;100693.97;5012987;28;20192;-71
2021/08/21 04:48:58;;;;;;;6.73;6.13;;;;;;;15.65;100.00;100692.47;5013117;28;20632;-71
2021/08/21 04:51:23;;;;;;;7.40;6.70;;;;;;;15.69;100.00;100687.09;5012805;28;20255;-71
2021/08/21 04:53:49;;;;;;;7.60;6.90;;;;;;;15.71;100.00;100687.56;5013069;28;20212;-71
2021/08/21 04:56:14;;;;;;;7.60;6.93;;;;;;;15.69;100.00;100693.41;5012730;28;20181;-71
2021/08/21 04:58:39;;;;;;;7.90;7.20;;;;;;;15.65;100.00;100686.16;5012740;28;20624;-71
2021/08/21 05:01:05;;;;;;;7.53;6.93;;;;;;;15.64;100.00;100679.06;5012767;28;20775;-71
2021/08/21 05:03:30;;;;;;;7.57;6.97;;;;;;;15.61;100.00;100675.00;5012736;28;20211;-71
2021/08/21 05:05:55;;;;;;;7.07;6.50;;;;;;;15.64;100.00;100684.56;5012476;28;20259;-71
2021/08/21 05:08:21;;;;;;;7.03;6.43;;;;;;;15.70;100.00;100681.25;5012685;28;20532;-71
2021/08/21 05:10:46;;;;;;;6.60;6.00;;;;;;;15.74;100.00;100675.84;5012674;28;20308;-71
2021/08/21 05:13:11;;;;;;;7.97;6.80;;;;;;;15.76;100.00;100673.56;5012262;28;20388;-71
2021/08/21 05:15:40;;;;;;;8.20;7.50;;;;;;;15.75;100.00;100672.75;5012343;28;20192;-71
2021/08/21 05:18:05;;;;;;;7.90;7.20;;;;;;;15.80;100.00;100671.75;5012586;28;20198;-71
2021/08/21 05:20:42;;;;;;;7.83;7.13;;;;;;;15.91;100.00;100683.94;5012310;28;20587;-71
2021/08/21 05:23:13;;;;;;;7.47;6.70;;;;;;;16.00;100.00;100676.38;5012289;28;20172;-71
2021/08/21 05:25:40;;;;;;;7.13;6.40;;;;;;;15.93;100.00;100681.66;5012328;28;20180;-71
2021/08/21 05:28:06;;;;;;;7.20;6.57;;;;;;;15.81;100.00;100675.31;5012498;28;20176;-71
2021/08/21 05:30:33;;;;;;;6.97;6.37;;;;;;;15.55;100.00;100684.59;5012039;28;20223;-71
2021/08/21 05:32:59;;;;;;;8.07;7.17;;;;;;;15.35;100.00;100688.22;5012204;28;20180;-71
2021/08/21 05:35:24;;;;;;;8.63;7.40;;;;;;;15.25;100.00;100674.84;5011858;28;20176;-71
2021/08/21 05:37:49;;;;;;;8.10;7.40;;;;;;;15.04;100.00;100678.41;5012141;28;20620;-71
2021/08/21 05:40:15;;;;;;;8.13;7.37;;;;;;;15.03;100.00;100687.78;5012170;28;20757;-71
2021/08/21 05:42:40;;;;;;;9.07;8.20;;;;;;;15.11;100.00;100683.38;5011206;28;20496;-71
2021/08/21 05:45:06;;;;;;;9.00;8.10;;;;;;;15.21;100.00;100694.00;5012960;28;20180;-71
2021/08/21 05:47:31;;;;;;;9.77;7.87;;;;;;;15.34;100.00;100692.91;5019754;28;20184;-71
2021/08/21 05:50:00;;;;;;;8.63;7.83;;;;;;;15.39;100.00;100700.97;5012394;28;20176;-71
2021/08/21 05:52:29;;;;;;;8.27;7.27;;;;;;;15.54;100.00;100691.25;5011689;28;20509;-71
2021/08/21 05:54:54;;;;;;;8.00;7.30;;;;;;;15.76;100.00;100690.09;5011439;28;20250;-71
2021/08/21 05:57:19;;;;;;;7.53;6.93;;;;;;;15.90;100.00;100698.84;5011891;28;20644;-71
2021/08/21 05:59:45;;;;;;;7.57;6.87;;;;;;;16.03;100.00;100714.28;5011623;28;20745;-71
2021/08/21 06:02:10;;;;;;;7.13;6.53;;;;;;;16.14;100.00;100716.59;5011728;28;20693;-71
2021/08/21 06:04:36;;;;;;;6.90;6.30;;;;;;;16.22;100.00;100710.19;5011267;28;20177;-71
2021/08/21 06:07:01;;;;;;;7.47;6.87;;;;;;;16.32;100.00;100704.19;5011408;28;20690;-71
2021/08/21 06:09:27;;;;;;;6.70;6.10;;;;;;;16.37;100.00;100701.25;5011843;28;20538;-71
2021/08/21 06:11:52;;;;;;;7.70;7.10;;;;;;;16.41;100.00;100710.41;5011609;28;20176;-71
2021/08/21 06:14:18;;;;;;;8.90;8.10;;;;;;;16.49;100.00;100756.41;5010835;28;20188;-71
2021/08/21 06:16:43;;;;;;;8.50;7.70;;;;;;;16.53;100.00;100771.13;5011394;28;20177;-71
2021/08/21 06:19:09;;;;;;;7.03;6.33;;;;;;;16.58;100.00;100772.84;5011173;28;20257;-71
2021/08/21 06:21:34;;;;;;;8.83;8.03;;;;;;;16.48;100.00;100771.31;5011160;28;20521;-71
2021/08/21 06:23:59;;;;;;;8.70;8.00;;;;;;;16.37;100.00;100761.91;5011052;28;20639;-71
2021/08/21 06:26:25;;;;;;;9.73;8.00;;;;;;;16.38;100.00;100751.69;5011290;28;20173;-71
2021/08/21 06:28:50;;;;;;;7.87;7.17;;;;;;;16.39;100.00;100742.25;5011319;28;20177;-71
2021/08/21 06:31:15;;;;;;;10.80;8.37;;;;;;;16.40;100.00;100754.91;5011142;28;20254;-71
2021/08/21 06:33:41;;;;;;;10.80;9.23;;;;;;;16.46;100.00;100757.06;5010685;28;20172;-71
2021/08/21 06:36:06;;;;;;;9.40;8.47;;;;;;;16.44;100.00;100773.16;5010998;28;20185;-71
2021/08/21 06:38:32;;;;;;;10.57;8.50;;;;;;;16.46;100.00;100781.09;5010971;28;20651;-71
2021/08/21 06:40:57;;;;;;;9.03;7.77;;;;;;;16.50;100.00;100765.50;5010865;28;20299;-71
2021/08/21 06:43:24;;;;;;;10.90;9.80;;;;;;;16.42;100.00;100750.63;5010932;28;20246;-71
2021/08/21 06:45:49;;;;;;;10.07;9.17;;;;;;;16.45;100.00;100760.97;5010612;28;20311;-71
2021/08/21 06:48:14;;;;;;;9.73;8.73;;;;;;;16.45;100.00;100747.19;5010734;28;20641;-71
2021/08/21 06:50:40;;;;;;;10.10;9.20;;;;;;;16.48;100.00;100742.94;5010783;28;20180;-71
2021/08/21 06:53:05;;;;;;;12.23;9.23;;;;;;;16.70;100.00;100741.72;5010460;28;20279;-71
2021/08/21 06:55:31;;;;;;;10.50;9.60;;;;;;;16.69;100.00;100751.16;5010469;28;20181;-71
2021/08/21 06:57:56;;;;;;;10.17;9.27;;;;;;;16.82;100.00;100738.97;5010714;28;20176;-71
2021/08/21 07:00:21;;;;;;;10.77;9.80;;;;;;;16.93;100.00;100729.88;5010981;28;20211;-71
2021/08/21 07:02:47;;;;;;;10.80;9.17;;;;;;;17.05;100.00;100737.31;5010478;28;20176;-71
2021/08/21 07:05:12;;;;;;;9.83;8.90;;;;;;;17.20;100.00;100736.59;5010431;28;20179;-71
2021/08/21 07:07:37;;;;;;;10.00;9.00;;;;;;;17.36;100.00;100738.59;5010920;28;20541;-71
2021/08/21 07:10:04;;;;;;;9.73;8.73;;;;;;;17.45;100.00;100742.03;5010629;28;20172;-71
2021/08/21 07:12:29;;;;;;;10.13;9.13;;;;;;;17.54;100.00;100732.47;5010619;28;20195;-71
2021/08/21 07:14:55;;;;;;;9.77;8.87;;;;;;;17.66;100.00;100745.44;5009885;28;20184;-71
2021/08/21 07:17:20;;;;;;;10.10;9.20;;;;;;;17.67;100.00;100741.50;5010638;28;20188;-71
2021/08/21 07:19:45;;;;;;;10.23;9.30;;;;;;;17.67;100.00;100747.03;5010451;28;20212;-71
2021/08/21 07:22:11;;;;;;;9.43;8.63;;;;;;;17.83;100.00;100749.88;5010475;28;20195;-71
2021/08/21 07:24:36;;;;;;;9.20;8.40;;;;;;;17.90;100.00;100744.53;5010230;28;20196;-71
2021/08/21 07:27:02;;;;;;;9.63;8.80;;;;;;;17.99;100.00;100753.47;5010519;28;20176;-71
2021/08/21 07:29:27;;;;;;;9.70;8.83;;;;;;;17.95;100.00;100751.78;5010328;28;20176;-71
2021/08/21 07:31:54;;;;;;;9.70;8.90;;;;;;;18.03;100.00;100746.06;5010378;28;20640;-71
2021/08/21 07:34:19;;;;;;;10.53;9.53;;;;;;;18.11;100.00;100758.94;5010078;28;20235;-71
2021/08/21 07:36:44;;;;;;;11.03;9.97;;;;;;;18.15;100.00;100761.81;5010409;28;20598;-71
2021/08/21 07:39:10;;;;;;;10.80;9.80;;;;;;;18.13;100.00;100792.59;5010368;28;20584;-71
2021/08/21 07:41:35;;;;;;;10.80;9.90;;;;;;;18.18;100.00;100744.50;5010305;28;20219;-71
2021/08/21 07:44:01;;;;;;;10.60;9.60;;;;;;;18.21;100.00;100718.88;5010417;28;20675;-71
2021/08/21 07:46:27;;;;;;;11.67;10.53;;;;;;;18.27;100.00;100717.47;5010255;28;20541;-71
2021/08/21 07:48:52;;;;;;;11.47;10.33;;;;;;;18.40;100.00;100738.34;5010257;28;20203;-71
2021/08/21 07:51:17;;;;;;;11.50;10.07;;;;;;;18.52;100.00;100751.31;5010140;28;20605;-71
2021/08/21 07:53:43;;;;;;;11.30;10.10;;;;;;;18.52;100.00;100761.56;5009979;28;20177;-71
2021/08/21 07:56:08;;;;;;;10.97;10.00;;;;;;;18.75;100.00;100728.53;5010144;28;20613;-71
2021/08/21 07:58:33;;;;;;;11.90;10.90;;;;;;;18.80;100.00;100753.97;5010062;28;20181;-71
2021/08/21 08:00:59;;;;;;;10.30;9.33;;;;;;;18.89;100.00;100723.34;5009956;28;20208;-71
2021/08/21 08:03:25;;;;;;;10.93;10.03;;;;;;;18.97;100.00;100725.09;5010001;28;20224;-71
2021/08/21 08:05:50;;;;;;;10.43;9.43;;;;;;;19.05;100.00;100826.56;5012381;28;20176;-71
2021/08/21 08:08:16;;;;;;;11.33;10.23;;;;;;;18.97;100.00;100734.22;5013656;28;20208;-72
2021/08/21 08:10:42;;;;;;;10.80;9.90;;;;;;;19.00;100.00;100727.94;5013601;28;20690;-71
2021/08/21 08:13:08;;;;;;;11.60;9.50;;;;;;;19.00;100.00;100736.25;5013141;28;20187;-71
2021/08/21 08:15:33;;;;;;;10.83;9.80;;;;;;;19.09;100.00;100730.50;5013217;28;20275;-71
2021/08/21 08:17:59;;;;;;;10.83;9.83;;;;;;;19.21;100.00;100747.00;5013557;28;20208;-71
2021/08/21 08:20:26;;;;;;;11.87;9.33;;;;;;;19.19;100.00;100713.31;5013332;28;20263;-71
2021/08/21 08:22:51;;;;;;;10.23;9.23;;;;;;;19.15;100.00;100698.59;5013384;28;20168;-71
2021/08/21 08:25:17;;;;;;;11.13;10.13;;;;;;;19.16;100.00;100710.47;5013038;28;20215;-72
2021/08/21 08:27:42;;;;;;;10.60;9.60;;;;;;;19.13;100.00;100716.75;5013322;28;20176;-71
2021/08/21 08:30:08;;;;;;;9.93;8.83;;;;;;;19.14;100.00;100719.16;5013487;28;20234;-71
2021/08/21 08:32:33;;;;;;;10.10;9.07;;;;;;;19.21;100.00;100718.50;5013176;28;20200;-71
2021/08/21 08:34:59;;;;;;;9.83;8.93;;;;;;;19.26;100.00;100721.00;5012898;28;20225;-72
2021/08/21 08:37:24;;;;;;;10.00;9.00;;;;;;;19.25;100.00;100772.84;5013340;28;20268;-71
2021/08/21 08:39:49;;;;;;;10.43;9.50;;;;;;;19.19;100.00;100712.53;5012942;28;20201;-71
2021/08/21 08:42:18;;;;;;;11.77;10.67;;;;;;;19.13;100.00;100716.75;5013066;28;20557;-71
2021/08/21 08:44:46;;;;;;;10.90;9.77;;;;;;;19.03;100.00;100718.91;5012786;28;20200;-72
2021/08/21 08:47:16;;;;;;;11.53;10.23;;;;;;;19.06;100.00;100709.06;5013082;28;20176;-71
2021/08/21 08:49:47;;;;;;;12.77;11.57;;;;;;;19.13;100.00;100711.22;5012966;28;20515;-72
2021/08/21 08:52:14;;;;;;;12.63;10.80;;;;;;;19.14;100.00;100710.84;5013016;28;20181;-72
2021/08/21 08:54:40;;;;;;;11.40;10.30;;;;;;;19.19;100.00;100720.84;5012708;28;20558;-71
2021/08/21 08:57:05;;;;;;;11.40;10.30;;;;;;;19.27;100.00;100711.53;5012802;28;20173;-71
2021/08/21 08:59:32;;;;;;;10.70;9.60;;;;;;;19.39;100.00;100719.69;5012771;28;20199;-71
2021/08/21 09:01:58;;;;;;;11.30;10.17;;;;;;;19.42;100.00;100735.59;5012617;28;20184;-71
2021/08/21 09:04:25;;;;;;;11.80;10.60;;;;;;;19.39;100.00;100741.88;5012441;28;20187;-71
2021/08/21 09:06:52;;;;;;;12.17;10.03;;;;;;;19.53;100.00;100728.31;5012691;28;20183;-72
2021/08/21 09:09:19;;;;;;;11.57;10.37;;;;;;;19.81;100.00;100728.06;5012646;28;20919;-71
2021/08/21 09:11:52;;;;;;;10.90;9.80;;;;;;;19.75;99.38;100724.00;5012530;28;20177;-71
2021/08/21 09:14:25;;;;;;;10.67;9.67;;;;;;;20.02;100.00;100730.44;5011730;28;20200;-71
2021/08/21 09:16:51;;;;;;;11.00;9.90;;;;;;;20.20;97.68;100730.78;5012294;28;20196;-71
2021/08/21 09:19:26;;;;;;;11.17;9.60;;;;;;;20.28;97.15;100731.72;5012498;28;20282;-72
2021/08/21 09:22:03;;;;;;;9.67;8.77;;;;;;;20.41;98.60;100722.84;5012377;28;20172;-71
2021/08/21 09:24:30;;;;;;;10.70;9.17;;;;;;;20.43;93.26;100731.59;5011934;28;20179;-72
2021/08/21 09:26:55;;;;;;;10.83;9.73;;;;;;;20.32;92.64;100722.25;5012308;28;20798;-71
2021/08/21 09:29:27;;;;;;;10.77;9.77;;;;;;;20.24;91.82;100725.28;5012278;28;20260;-71
2021/08/21 09:32:04;;;;;;;9.83;8.93;;;;;;;20.17;94.41;100717.63;5012095;28;20188;-71
2021/08/21 09:34:30;;;;;;;10.87;9.77;;;;;;;20.34;96.80;100719.91;5011889;28;20207;-71
2021/08/21 09:36:56;;;;;;;10.30;9.30;;;;;;;20.37;93.53;100712.81;5012044;28;20267;-72
2021/08/21 09:39:33;;;;;;;10.13;9.23;;;;;;;20.41;94.71;100725.63;5011896;28;20286;-71
2021/08/21 09:42:04;;;;;;;13.83;9.80;;;;;;;20.52;94.37;100742.44;5011959;28;20176;-71
2021/08/21 09:44:47;;;;;;;11.00;9.87;;;;;;;20.49;92.08;100732.09;5011947;28;20173;-71
2021/08/21 09:47:26;;;;;;;9.93;8.93;;;;;;;20.37;92.60;100729.47;5012011;28;20177;-71
2021/08/21 09:50:10;;;;;;;9.23;8.43;;;;;;;20.47;92.80;100737.22;5011862;28;20182;-71
2021/08/21 09:52:35;;;;;;;9.37;8.47;;;;;;;20.64;88.30;100705.34;5011797;28;20457;-71
2021/08/21 09:55:10;;;;;;;9.33;8.20;;;;;;;20.71;89.45;100703.50;5011579;28;20168;-71
2021/08/21 09:57:36;;;;;;;9.30;8.47;;;;;;;20.72;89.37;100707.88;5012009;28;20240;-71
2021/08/21 10:00:04;;;;;;;7.93;7.13;;;;;;;20.80;89.31;100715.13;5011524;28;20196;-71
2021/08/21 10:02:32;;;;;;;8.20;7.40;;;;;;;20.90;91.66;100716.47;5011580;28;20223;-72
2021/08/21 10:04:59;;;;;;;9.17;8.37;;;;;;;20.76;88.11;100702.38;5011246;28;20181;-71
2021/08/21 10:07:32;;;;;;;9.03;7.70;;;;;;;20.95;90.18;100702.25;5011504;28;20173;-72
2021/08/21 10:10:02;;;;;;;7.93;7.13;;;;;;;21.17;88.92;100702.56;5011801;28;20186;-72
2021/08/21 10:12:28;;;;;;;8.53;7.77;;;;;;;21.31;85.89;100713.88;5011475;28;20172;-71
2021/08/21 10:14:54;;;;;;;9.07;8.30;;;;;;;21.37;83.03;100704.81;5010694;28;20208;-71
2021/08/21 10:17:20;;;;;;;9.43;8.53;;;;;;;21.37;85.35;100709.56;5011385;28;20648;-72
2021/08/21 10:19:47;;;;;;;8.60;7.80;;;;;;;21.37;87.05;100712.34;5011579;28;20200;-71
2021/08/21 10:22:14;;;;;;;8.63;7.87;;;;;;;21.47;85.61;100710.91;5011286;28;20206;-72
2021/08/21 10:24:47;;;;;;;9.47;8.57;;;;;;;21.31;85.42;100709.13;5010900;28;20174;-71
2021/08/21 10:27:23;;;;;;;8.97;8.07;;;;;;;21.44;83.54;100714.44;5010834;28;20542;-71
2021/08/21 10:30:05;;;;;;;10.00;7.73;;;;;;;21.63;82.51;100717.84;5011275;28;20177;-71
2021/08/21 10:32:45;;;;;;;9.83;8.80;;;;;;;21.72;78.01;100714.78;5010997;28;20184;-72
2021/08/21 10:35:13;;;;;;;9.00;8.20;;;;;;;21.79;80.07;100709.28;5010907;28;20212;-72
2021/08/21 10:37:40;;;;;;;8.93;8.13;;;;;;;21.88;82.21;100714.56;5011248;28;20184;-71
2021/08/21 10:40:26;;;;;;;9.30;8.50;;;;;;;21.74;80.81;100714.41;5010872;28;20663;-72
2021/08/21 10:42:56;;;;;;;8.63;7.93;;;;;;;21.85;82.10;100710.56;5010897;28;20451;-71
2021/08/21 10:45:41;;;;;;;8.20;7.50;;;;;;;21.69;81.10;100707.97;5010627;28;20184;-72
2021/08/21 10:48:10;;;;;;;8.80;8.00;;;;;;;21.94;83.91;100708.25;5010917;28;20178;-72
2021/08/21 10:50:45;;;;;;;8.73;7.93;;;;;;;21.92;78.19;100702.25;5011057;28;20199;-71
2021/08/21 10:53:27;;;;;;;9.30;8.50;;;;;;;21.90;80.44;100706.63;5011131;28;20182;-72
2021/08/21 10:55:54;;;;;;;9.43;8.63;;;;;;;22.09;79.04;100698.09;5010624;28;20247;-72
2021/08/21 10:58:22;;;;;;;8.10;7.40;;;;;;;22.02;79.93;100695.22;5010766;28;20192;-71
2021/08/21 11:00:51;;;;;;;12.10;8.40;;;;;;;21.90;81.41;100699.06;5010652;28;20232;-72
2021/08/21 11:03:37;;;;;;;10.33;9.43;;;;;;;21.76;78.99;100687.78;5011055;28;20181;-72
2021/08/21 11:06:09;;;;;;;8.43;7.63;;;;;;;22.00;79.65;100692.03;5003513;28;20215;-72
2021/08/21 11:08:35;;;;;;;9.10;8.33;;;;;;;22.33;78.86;100680.00;5010712;28;20174;-72
2021/08/21 11:11:20;;;;;;;8.80;8.10;;;;;;;22.39;78.11;100686.81;5010625;28;20666;-72
2021/08/21 11:14:05;;;;;;;9.07;8.27;;;;;;;22.53;77.27;100734.25;5010017;28;20179;-72
2021/08/21 11:17:11;;;;;;;8.33;7.63;;;;;;;22.67;77.74;100694.56;5010659;28;20184;-72